Main page
METAR-TAF:

METAR-TAF

Airports :

Mannheim City Airport

Mannheim, Germany

latitude: 49-28-21N, longitude: 008-30-56E, elevation: 100 m

Current weather observation

The report was made 26 minutes ago, at 16:50 UTC
Wind 3 kt from the West/Southwest, varying between South and North/Northwest
Temperature 23°C
Humidity 44%
Pressure 1016 hPa
Visibility 10 km or more
no clouds below 1500 m and no cumulonimbus

METAR: EDFM 251650Z 25003KT 180V340 CAVOK 23/10 Q1016

Time: 19:16 (17:16 UTC)

Forecast

The report was made 16 minutes ago, at 17:00 UTC
Forecast valid from 24 at 18 UTC to 24 at 21 UTC
Wind 4 kt from the South/Southwest
Visibility 10 km or more
Few clouds at a height of 3500 ft
Temporary
from 24 at 18 UTC to 24 at 19 UTC
Broken clouds at a height of 2500 ft, Cumulonimbus.
rain showers,

TAF: EDFM 241700Z 2418/2421 21004KT 9999 FEW035 TEMPO 2418/2419 SHRA BKN025CB

Weather observations and forecasts of more than 4000 airports (METAR and TAF reports).

The available stations are represented by yellow and red dots on the map.

Hover mouse over dot to see the name of the station.

Then click to see weather observations and forecasts.

To change the map : click on the green buttons with a black cross to zoom in, on the green button with a dash to zoom out, or on the green arrows for adjacent maps.


METAR-TAF: